Time;durP1;ratioP1;P1;durP2;ratioP2;P2;SDS_P1;SDS_P2;PMS_P1;PMS_P2;Temp;Humidity;BMP_temperature;BMP_pressure;BME280_temperature;BME280_humidity;BME280_pressure;Samples;Min_cycle;Max_cycle;Signal;HPM_P1;HPM_P2
2022/07/27 00:00:39;;;;;;;;;;;;;;;23.33;48.64;100325.59;5011527;28;20012;-85
2022/07/27 00:03:06;;;;;;;;;;;;;;;23.27;48.89;100319.22;5031914;28;19940;-85
2022/07/27 00:05:33;;;;;;;;;;;;;;;23.20;48.34;100318.53;5036308;28;19912;-83
2022/07/27 00:08:00;;;;;;;;;;;;;;;23.16;48.51;100326.44;5034487;28;19917;-84
2022/07/27 00:10:25;;;;;;;;;;;;;;;23.15;48.58;100322.03;5030977;28;19987;-82
2022/07/27 00:12:51;;;;;;;;;;;;;;;23.09;48.62;100322.25;5028255;28;19921;-85
2022/07/27 00:15:16;;;;;;;;;;;;;;;23.08;47.97;100321.38;5033188;28;20396;-85
2022/07/27 00:17:42;;;;;;;;;;;;;;;23.03;48.05;100318.56;5035098;28;19966;-85
2022/07/27 00:20:08;;;;;;;;;;;;;;;22.92;47.49;100320.31;5038220;28;19920;-85
2022/07/27 00:22:34;;;;;;;;;;;;;;;22.81;48.07;100328.63;5027521;28;19921;-85
2022/07/27 00:24:59;;;;;;;;;;;;;;;22.85;48.16;100325.16;5038876;28;19913;-84
2022/07/27 00:27:26;;;;;;;;;;;;;;;22.83;48.15;100329.19;5036524;28;19921;-84
2022/07/27 00:29:53;;;;;;;;;;;;;;;22.81;48.09;100328.63;5033447;28;19921;-84
2022/07/27 00:32:18;;;;;;;;;;;;;;;22.71;48.32;100315.56;5028469;28;19925;-84
2022/07/27 00:34:43;;;;;;;;;;;;;;;22.74;48.96;100331.53;5039009;28;19931;-84
2022/07/27 00:37:12;;;;;;;;;;;;;;;22.77;48.26;100320.91;5032527;28;20334;-84
2022/07/27 00:39:39;;;;;;;;;;;;;;;22.65;48.00;100322.06;5030873;28;19921;-85
2022/07/27 00:42:07;;;;;;;;;;;;;;;22.64;48.27;100321.25;5032282;28;19920;-85
2022/07/27 00:44:33;;;;;;;;;;;;;;;22.72;47.88;100318.06;5026610;28;19925;-84
2022/07/27 00:46:58;;;;;;;;;;;;;;;22.65;47.94;100317.41;5025597;28;19944;-84
2022/07/27 00:49:27;;;;;;;;;;;;;;;22.88;47.82;100318.34;5018516;28;20350;-84
2022/07/27 00:51:56;;;;;;;;;;;;;;;22.86;47.43;100312.25;5031018;28;19922;-85
2022/07/27 00:54:21;;;;;;;;;;;;;;;22.84;47.83;100320.72;5035570;28;19972;-85
2022/07/27 00:56:49;;;;;;;;;;;;;;;22.82;48.13;100305.63;5028309;28;19959;-83
2022/07/27 00:59:15;;;;;;;;;;;;;;;22.73;48.23;100302.47;5029764;28;19921;-85
2022/07/27 01:01:42;;;;;;;;;;;;;;;22.65;48.67;100311.94;5031849;28;19917;-84
2022/07/27 01:04:07;;;;;;;;;;;;;;;22.66;48.67;100307.28;5031377;28;19917;-85
2022/07/27 01:06:33;;;;;;;;;;;;;;;22.49;48.72;100291.69;5029956;28;19917;-84
2022/07/27 01:11:43;;;;;;;;;;;;;;;22.60;48.36;100308.28;5038969;28;19924;-84
2022/07/27 01:14:08;;;;;;;;;;;;;;;22.65;48.29;100305.63;5034192;28;19918;-85
2022/07/27 01:16:36;;;;;;;;;;;;;;;22.64;48.20;100306.69;5036191;28;19917;-83
2022/07/27 01:19:03;;;;;;;;;;;;;;;22.66;48.10;100293.59;5040004;28;19916;-86
2022/07/27 01:21:33;;;;;;;;;;;;;;;22.68;47.72;100294.16;5032687;28;20376;-86
2022/07/27 01:23:58;;;;;;;;;;;;;;;22.68;47.63;100288.69;5031005;28;19932;-85
2022/07/27 01:26:25;;;;;;;;;;;;;;;22.75;47.31;100287.44;5018651;28;19917;-84
2022/07/27 01:28:54;;;;;;;;;;;;;;;22.81;47.19;100288.34;5026351;28;19924;-86
2022/07/27 01:31:25;;;;;;;;;;;;;;;22.83;47.21;100297.16;5026627;28;19976;-84
2022/07/27 01:33:50;;;;;;;;;;;;;;;22.74;47.23;100304.97;5026237;28;19935;-84
2022/07/27 01:36:18;;;;;;;;;;;;;;;22.68;47.16;100297.72;5032227;28;20016;-84
2022/07/27 01:38:44;;;;;;;;;;;;;;;22.62;47.41;100297.91;5011588;28;19979;-84
2022/07/27 01:41:10;;;;;;;;;;;;;;;22.65;47.45;100302.91;5025254;28;19963;-84
2022/07/27 01:43:36;;;;;;;;;;;;;;;22.64;47.19;100293.84;5013608;28;19956;-85
2022/07/27 01:46:02;;;;;;;;;;;;;;;22.65;47.21;100290.00;5024512;28;19918;-82
2022/07/27 01:48:29;;;;;;;;;;;;;;;22.65;46.76;100289.19;5019196;28;20013;-85
2022/07/27 01:50:55;;;;;;;;;;;;;;;22.60;47.23;100287.19;5031083;28;19945;-85
2022/07/27 01:53:20;;;;;;;;;;;;;;;22.61;47.30;100282.53;5011834;28;20066;-84
2022/07/27 01:55:47;;;;;;;;;;;;;;;22.59;46.98;100279.22;5015289;28;19924;-85
2022/07/27 01:58:12;;;;;;;;;;;;;;;22.61;47.27;100288.03;5032282;28;19909;-85
2022/07/27 02:00:38;;;;;;;;;;;;;;;22.63;46.83;100288.59;5012900;28;19917;-82
2022/07/27 02:03:03;;;;;;;;;;;;;;;22.64;46.96;100287.50;5031690;28;19913;-83
2022/07/27 02:05:29;;;;;;;;;;;;;;;22.63;46.93;100280.41;5023368;28;20020;-82
2022/07/27 02:07:55;;;;;;;;;;;;;;;22.59;47.26;100277.31;5030646;28;19952;-83
2022/07/27 02:10:22;;;;;;;;;;;;;;;22.59;47.20;100279.22;5028820;28;19995;-83
2022/07/27 02:12:50;;;;;;;;;;;;;;;22.56;47.06;100280.56;5030554;28;19920;-85
2022/07/27 02:15:18;;;;;;;;;;;;;;;22.54;47.15;100275.31;5025979;28;19991;-84
2022/07/27 02:17:43;;;;;;;;;;;;;;;22.51;47.16;100273.09;5032203;28;19924;-83
2022/07/27 02:20:09;;;;;;;;;;;;;;;22.45;47.52;100276.84;5009945;28;19917;-84
2022/07/27 02:22:34;;;;;;;;;;;;;;;22.48;47.21;100275.50;5034036;28;19913;-83
2022/07/27 02:25:00;;;;;;;;;;;;;;;22.47;47.28;100280.13;5033313;28;20267;-85
2022/07/27 02:27:25;;;;;;;;;;;;;;;22.37;47.60;100277.25;5031531;28;19921;-82
2022/07/27 02:29:52;;;;;;;;;;;;;;;22.38;47.70;100276.16;5011499;28;19917;-84
2022/07/27 02:32:20;;;;;;;;;;;;;;;22.43;47.58;100279.00;5019476;28;19917;-84
2022/07/27 02:34:45;;;;;;;;;;;;;;;22.30;47.41;100276.56;5032486;28;19909;-82
2022/07/27 02:37:10;;;;;;;;;;;;;;;22.33;47.66;100278.81;5011514;28;20274;-84
2022/07/27 02:39:37;;;;;;;;;;;;;;;22.30;47.88;100271.91;5029161;28;19917;-84
2022/07/27 02:42:04;;;;;;;;;;;;;;;22.34;47.65;100285.97;5032505;28;20374;-84
2022/07/27 02:44:30;;;;;;;;;;;;;;;22.32;47.71;100286.19;5031013;28;19933;-83
2022/07/27 02:46:57;;;;;;;;;;;;;;;22.31;47.80;100286.44;5036916;28;19929;-82
2022/07/27 02:49:23;;;;;;;;;;;;;;;22.23;48.02;100295.06;5035063;28;19924;-83
2022/07/27 02:51:50;;;;;;;;;;;;;;;22.25;48.10;100292.91;5029364;28;19967;-83
2022/07/27 02:54:19;;;;;;;;;;;;;;;22.24;48.18;100293.97;5029921;28;19917;-85
2022/07/27 02:56:45;;;;;;;;;;;;;;;22.26;47.97;100286.34;5028588;28;20444;-84
2022/07/27 02:59:13;;;;;;;;;;;;;;;22.15;48.31;100290.81;5030194;28;20016;-84
2022/07/27 03:01:39;;;;;;;;;;;;;;;22.19;48.27;100296.59;5035331;28;19925;-83
2022/07/27 03:04:05;;;;;;;;;;;;;;;22.18;47.94;100290.31;5039635;28;19935;-84
2022/07/27 03:06:31;;;;;;;;;;;;;;;22.24;47.86;100283.03;5040014;28;19913;-84
2022/07/27 03:08:57;;;;;;;;;;;;;;;22.32;47.74;100290.84;5030942;28;20381;-84
2022/07/27 03:11:23;;;;;;;;;;;;;;;22.30;47.73;100288.34;5035416;28;19920;-83
2022/07/27 03:13:48;;;;;;;;;;;;;;;22.30;47.51;100290.25;5034432;28;19985;-84
2022/07/27 03:16:17;;;;;;;;;;;;;;;22.35;47.43;100284.88;5035299;28;20357;-83
2022/07/27 03:18:42;;;;;;;;;;;;;;;22.36;47.02;100292.03;5033321;28;20344;-84
2022/07/27 03:21:12;;;;;;;;;;;;;;;22.39;47.04;100294.25;5030470;28;19960;-84
2022/07/27 03:23:38;;;;;;;;;;;;;;;22.46;47.10;100285.88;5034132;28;20396;-83
2022/07/27 03:26:04;;;;;;;;;;;;;;;22.49;46.39;100285.38;5033354;28;19917;-82
2022/07/27 03:28:30;;;;;;;;;;;;;;;22.51;46.97;100284.03;5031400;28;19976;-83
2022/07/27 03:30:56;;;;;;;;;;;;;;;22.61;47.08;100279.81;5035352;28;19913;-84
2022/07/27 03:33:22;;;;;;;;;;;;;;;22.62;47.18;100285.06;5024147;28;20024;-83
2022/07/27 03:35:47;;;;;;;;;;;;;;;22.63;47.29;100277.66;5030756;28;19972;-83
2022/07/27 03:38:12;;;;;;;;;;;;;;;22.65;47.43;100280.97;5047502;28;19979;-80
2022/07/27 03:40:38;;;;;;;;;;;;;;;22.77;46.89;100282.53;5035309;28;20422;-84
2022/07/27 03:43:04;;;;;;;;;;;;;;;22.84;46.78;100285.09;5047179;28;19944;-83
2022/07/27 03:45:29;;;;;;;;;;;;;;;22.88;46.63;100272.56;5025683;28;20352;-84
2022/07/27 03:47:56;;;;;;;;;;;;;;;22.89;46.81;100274.22;5030650;28;19925;-83
2022/07/27 03:50:24;;;;;;;;;;;;;;;22.93;46.96;100271.81;5025068;28;19951;-84
2022/07/27 03:52:50;;;;;;;;;;;;;;;22.98;46.56;100274.63;5030618;28;20366;-84
2022/07/27 03:55:16;;;;;;;;;;;;;;;23.03;46.52;100268.41;5031090;28;19940;-83
2022/07/27 03:57:41;;;;;;;;;;;;;;;22.95;47.00;100267.72;5031814;28;19921;-84
2022/07/27 04:00:09;;;;;;;;;;;;;;;22.97;46.53;100270.22;5033600;28;19917;-84
2022/07/27 04:02:35;;;;;;;;;;;;;;;23.08;46.50;100272.03;5033992;28;19944;-85
2022/07/27 04:05:00;;;;;;;;;;;;;;;23.20;46.21;100269.19;5036847;28;20293;-84
2022/07/27 04:07:25;;;;;;;;;;;;;;;23.28;45.89;100271.50;5031644;28;20320;-84
2022/07/27 04:09:51;;;;;;;;;;;;;;;23.35;45.95;100283.09;5028093;28;20328;-83
2022/07/27 04:12:19;;;;;;;;;;;;;;;23.38;46.05;100276.28;5024452;28;19920;-84
2022/07/27 04:14:44;;;;;;;;;;;;;;;23.43;46.37;100281.81;5032419;28;19915;-84
2022/07/27 04:17:11;;;;;;;;;;;;;;;23.47;46.39;100279.41;5023921;28;19929;-84
2022/07/27 04:19:36;;;;;;;;;;;;;;;23.60;46.10;100284.50;5029991;28;20031;-84
2022/07/27 04:22:02;;;;;;;;;;;;;;;23.68;46.17;100283.22;5029911;28;19944;-84
2022/07/27 04:24:27;;;;;;;;;;;;;;;23.75;46.07;100289.38;5028091;28;19924;-84
2022/07/27 04:26:53;;;;;;;;;;;;;;;23.83;46.72;100293.56;5023041;28;19929;-85
2022/07/27 04:29:19;;;;;;;;;;;;;;;23.89;46.43;100293.38;5025282;28;20373;-83
2022/07/27 04:31:46;;;;;;;;;;;;;;;23.97;46.03;100298.38;5031057;28;19921;-83
2022/07/27 04:34:11;;;;;;;;;;;;;;;24.10;44.74;100294.41;5031643;28;19932;-83
2022/07/27 04:36:37;;;;;;;;;;;;;;;24.31;44.57;100300.09;5021660;28;19918;-85
2022/07/27 04:39:02;;;;;;;;;;;;;;;24.49;44.56;100291.50;5030877;28;19917;-82
2022/07/27 04:41:28;;;;;;;;;;;;;;;24.73;44.24;100296.63;5031964;28;20288;-82
2022/07/27 04:43:53;;;;;;;;;;;;;;;24.92;43.33;100295.09;5029510;28;20021;-83
2022/07/27 04:46:19;;;;;;;;;;;;;;;25.17;42.34;100290.84;5036323;28;20376;-83
2022/07/27 04:48:44;;;;;;;;;;;;;;;25.36;42.67;100294.84;5037113;28;19925;-83
2022/07/27 04:51:12;;;;;;;;;;;;;;;25.69;40.95;100303.78;5029625;28;19928;-83
2022/07/27 04:53:37;;;;;;;;;;;;;;;25.89;41.12;100295.63;5027712;28;19925;-83
2022/07/27 04:56:04;;;;;;;;;;;;;;;26.24;39.72;100304.19;5035426;28;19924;-87
2022/07/27 04:58:31;;;;;;;;;;;;;;;26.51;39.11;100296.50;5034043;28;19925;-85
2022/07/27 05:00:56;;;;;;;;;;;;;;;26.77;38.41;100303.97;5031796;28;19921;-85
2022/07/27 05:03:24;;;;;;;;;;;;;;;26.87;39.04;100306.69;5034468;28;19924;-83
2022/07/27 05:05:50;;;;;;;;;;;;;;;27.10;38.02;100300.56;5029541;28;19913;-83
2022/07/27 05:08:17;;;;;;;;;;;;;;;27.34;36.17;100305.50;5033230;28;19952;-83
2022/07/27 05:10:44;;;;;;;;;;;;;;;27.57;36.16;100304.84;5033305;28;19918;-86
2022/07/27 05:13:09;;;;;;;;;;;;;;;27.73;35.41;100304.78;5034226;28;19917;-86
2022/07/27 05:15:36;;;;;;;;;;;;;;;28.06;34.39;100302.44;5032888;28;19920;-86
2022/07/27 05:18:01;;;;;;;;;;;;;;;28.30;34.48;100311.63;5038466;28;20268;-84
2022/07/27 05:20:28;;;;;;;;;;;;;;;28.34;34.20;100309.97;5037652;28;19924;-83
2022/07/27 05:22:53;;;;;;;;;;;;;;;28.46;34.59;100306.00;5029615;28;19913;-85
2022/07/27 05:25:20;;;;;;;;;;;;;;;28.72;34.18;100313.00;5033431;28;19917;-87
2022/07/27 05:27:46;;;;;;;;;;;;;;;28.85;34.50;100316.22;5031311;28;20349;-87
2022/07/27 05:30:11;;;;;;;;;;;;;;;28.94;35.82;100315.28;5032866;28;20019;-85
2022/07/27 05:32:37;;;;;;;;;;;;;;;29.05;36.08;100311.28;5034066;28;20238;-85
2022/07/27 05:35:03;;;;;;;;;;;;;;;29.13;37.19;100318.16;5023292;28;19920;-85
2022/07/27 05:37:28;;;;;;;;;;;;;;;29.26;35.92;100313.84;5048788;28;19932;-89
2022/07/27 05:39:53;;;;;;;;;;;;;;;29.31;36.51;100315.75;5031737;28;19922;-87
2022/07/27 05:42:23;;;;;;;;;;;;;;;29.61;36.18;100323.66;5030492;28;19917;-85
2022/07/27 05:44:54;;;;;;;;;;;;;;;29.88;35.95;100311.19;5035508;28;19921;-87
2022/07/27 05:47:23;;;;;;;;;;;;;;;30.09;35.44;100323.63;5042137;28;19965;-90
2022/07/27 05:49:49;;;;;;;;;;;;;;;30.27;34.99;100312.84;5041798;28;19913;-85
2022/07/27 05:52:19;;;;;;;;;;;;;;;30.45;35.21;100320.31;5041935;28;19924;-88
2022/07/27 05:54:46;;;;;;;;;;;;;;;30.50;35.23;100320.22;5038705;28;19917;-89
2022/07/27 05:57:14;;;;;;;;;;;;;;;30.60;33.62;100313.69;5056035;28;19917;-90
2022/07/27 05:59:40;;;;;;;;;;;;;;;30.60;33.98;100312.84;5042973;28;20348;-84
2022/07/27 06:02:06;;;;;;;;;;;;;;;30.69;33.71;100311.03;5046785;28;19935;-84
2022/07/27 06:04:31;;;;;;;;;;;;;;;30.90;33.26;100312.34;5035426;28;19921;-89
2022/07/27 06:09:42;;;;;;;;;;;;;;;31.26;32.87;100300.56;5044479;28;19971;-88
2022/07/27 06:12:22;;;;;;;;;;;;;;;31.42;30.80;100311.38;5043454;28;19940;-94
2022/07/27 06:14:50;;;;;;;;;;;;;;;31.59;30.21;100308.00;5030396;28;19985;-90
2022/07/27 06:17:15;;;;;;;;;;;;;;;31.72;30.16;100301.56;5039799;28;20423;-91
2022/07/27 06:19:41;;;;;;;;;;;;;;;31.81;31.02;100304.44;5034143;28;19993;-88
2022/07/27 06:22:12;;;;;;;;;;;;;;;31.84;31.50;100301.03;5039979;28;19952;-90
2022/07/27 06:24:39;;;;;;;;;;;;;;;31.94;31.39;100306.38;5025352;28;19960;-90
2022/07/27 06:27:05;;;;;;;;;;;;;;;32.00;30.30;100296.81;5041010;28;19937;-87
2022/07/27 06:29:30;;;;;;;;;;;;;;;32.27;30.15;100301.47;5033879;28;20280;-90
2022/07/27 06:31:56;;;;;;;;;;;;;;;32.38;29.69;100297.28;5039348;28;19924;-92
2022/07/27 06:34:28;;;;;;;;;;;;;;;32.51;30.34;100298.38;5035898;28;19918;-90
2022/07/27 06:37:35;;;;;;;;;;;;;;;32.48;29.82;100298.19;5045142;28;20035;-88
2022/07/27 06:40:01;;;;;;;;;;;;;;;32.30;29.95;100305.56;5038381;28;19913;-85
2022/07/27 06:42:28;;;;;;;;;;;;;;;32.20;30.76;100311.38;5047598;28;19925;-88
2022/07/27 06:44:58;;;;;;;;;;;;;;;32.43;29.61;100304.69;5041830;28;19921;-88
2022/07/27 06:47:23;;;;;;;;;;;;;;;32.58;28.89;100303.50;5041739;28;19971;-88
2022/07/27 06:49:57;;;;;;;;;;;;;;;32.67;30.17;100303.56;5029674;28;19977;-88
2022/07/27 06:52:34;;;;;;;;;;;;;;;32.76;29.51;100307.22;5048989;28;19976;-91
2022/07/27 06:55:01;;;;;;;;;;;;;;;32.69;29.84;100304.06;5024655;28;19966;-89
2022/07/27 06:57:27;;;;;;;;;;;;;;;32.98;29.24;100309.94;5007428;28;19921;-85
2022/07/27 06:59:56;;;;;;;;;;;;;;;33.13;29.35;100310.69;5036682;28;19927;-89
2022/07/27 07:02:33;;;;;;;;;;;;;;;33.23;30.23;100310.44;5037886;28;20013;-89
2022/07/27 07:05:04;;;;;;;;;;;;;;;33.17;30.67;100312.53;5019075;28;20297;-92
2022/07/27 07:07:39;;;;;;;;;;;;;;;32.84;30.19;100308.41;5040127;28;19913;-93
2022/07/27 07:10:06;;;;;;;;;;;;;;;32.85;30.58;100312.81;5029119;28;19931;-92
2022/07/27 07:12:33;;;;;;;;;;;;;;;32.89;31.49;100316.63;5028331;28;19913;-94
2022/07/27 07:15:02;;;;;;;;;;;;;;;33.00;31.42;100313.25;5022072;28;19936;-90
2022/07/27 07:17:34;;;;;;;;;;;;;;;33.21;30.21;100318.28;5019827;28;20004;-91
2022/07/27 07:20:01;;;;;;;;;;;;;;;33.50;29.97;100322.47;5044427;28;19940;-86
2022/07/27 07:22:26;;;;;;;;;;;;;;;33.68;29.09;100315.03;5042268;28;19929;-87
2022/07/27 07:24:52;;;;;;;;;;;;;;;32.93;28.62;100323.19;5037048;28;20304;-87
2022/07/27 07:27:24;;;;;;;;;;;;;;;32.87;29.19;100324.47;5048741;28;19917;-87
2022/07/27 07:29:51;;;;;;;;;;;;;;;33.11;29.56;100324.97;5041444;28;19917;-82
2022/07/27 07:32:21;;;;;;;;;;;;;;;33.54;28.63;100326.25;5044273;28;19917;-82
2022/07/27 07:34:48;;;;;;;;;;;;;;;33.43;27.84;100326.56;5034710;28;19980;-84
2022/07/27 07:37:14;;;;;;;;;;;;;;;33.42;28.37;100326.88;5035174;28;20300;-84
2022/07/27 07:39:41;;;;;;;;;;;;;;;33.51;29.10;100326.91;5027069;28;20048;-83
2022/07/27 07:42:06;;;;;;;;;;;;;;;33.35;28.62;100332.09;5028962;28;19917;-84
2022/07/27 07:44:32;;;;;;;;;;;;;;;33.60;28.93;100322.22;5022187;28;19925;-85
2022/07/27 07:46:59;;;;;;;;;;;;;;;33.72;29.04;100332.75;5027423;28;19944;-85
2022/07/27 07:49:24;;;;;;;;;;;;;;;33.68;28.52;100332.56;5027157;28;19981;-87
2022/07/27 07:51:51;;;;;;;;;;;;;;;33.66;28.70;100340.41;5058195;28;19972;-86
2022/07/27 07:54:17;;;;;;;;;;;;;;;33.25;28.41;100335.16;5024174;28;19987;-82
2022/07/27 07:56:42;;;;;;;;;;;;;;;33.51;28.69;100338.88;5031760;28;20330;-82
2022/07/27 07:59:08;;;;;;;;;;;;;;;34.15;27.60;100335.59;5037515;28;20352;-91
2022/07/27 08:01:35;;;;;;;;;;;;;;;33.94;25.94;100334.56;5041267;28;20187;-86
2022/07/27 08:04:02;;;;;;;;;;;;;;;33.98;27.14;100343.94;5041505;28;19948;-89
2022/07/27 08:06:33;;;;;;;;;;;;;;;33.66;26.40;100342.38;5034509;28;19916;-85
2022/07/27 08:08:59;;;;;;;;;;;;;;;33.72;27.58;100336.34;5034380;28;20147;-88
2022/07/27 08:11:25;;;;;;;;;;;;;;;33.73;28.27;100339.94;5029388;28;20115;-84
2022/07/27 08:13:50;;;;;;;;;;;;;;;33.51;28.79;100338.06;5024995;28;19983;-89
2022/07/27 08:16:16;;;;;;;;;;;;;;;33.43;31.12;100343.28;5034256;28;19924;-88
2022/07/27 08:18:42;;;;;;;;;;;;;;;34.07;30.89;100339.19;5034303;28;19917;-88
2022/07/27 08:21:10;;;;;;;;;;;;;;;33.85;30.22;100338.16;5037930;28;19928;-86
2022/07/27 08:23:37;;;;;;;;;;;;;;;33.80;30.61;100329.13;5034722;28;19925;-87
2022/07/27 08:26:04;;;;;;;;;;;;;;;34.39;31.33;100340.66;5040780;28;20022;-87
2022/07/27 08:28:31;;;;;;;;;;;;;;;34.59;32.08;100341.97;5035927;28;20373;-85
2022/07/27 08:31:00;;;;;;;;;;;;;;;34.92;32.12;100341.44;5026513;28;19984;-85
2022/07/27 08:33:25;;;;;;;;;;;;;;;35.58;29.75;100341.03;5035428;28;19941;-84
2022/07/27 08:35:52;;;;;;;;;;;;;;;35.48;27.81;100347.03;5032864;28;19913;-86
2022/07/27 08:38:17;;;;;;;;;;;;;;;35.81;26.87;100338.78;5038977;28;19921;-81
2022/07/27 08:40:43;;;;;;;;;;;;;;;36.22;26.89;100341.97;5030537;28;19917;-86
2022/07/27 08:43:09;;;;;;;;;;;;;;;36.55;26.94;100348.44;5037985;28;19996;-84
2022/07/27 08:45:37;;;;;;;;;;;;;;;36.79;27.39;100352.50;5018424;28;19939;-88
2022/07/27 08:48:06;;;;;;;;;;;;;;;36.78;28.50;100352.84;5054864;28;19976;-89
2022/07/27 08:50:34;;;;;;;;;;;;;;;36.33;30.86;100355.22;5036189;28;19928;-86
2022/07/27 08:53:06;;;;;;;;;;;;;;;35.83;31.86;100349.66;5023269;28;19935;-85
2022/07/27 08:55:35;;;;;;;;;;;;;;;36.26;30.84;100362.53;5027860;28;19965;-86
2022/07/27 08:58:01;;;;;;;;;;;;;;;36.11;31.69;100361.16;5031458;28;19917;-85
2022/07/27 09:00:28;;;;;;;;;;;;;;;36.18;31.55;100361.44;5035786;28;19923;-84
2022/07/27 09:02:53;;;;;;;;;;;;;;;36.90;31.22;100361.28;5029363;28;19913;-86
2022/07/27 09:05:19;;;;;;;;;;;;;;;36.72;31.26;100361.47;5036439;28;20354;-84
2022/07/27 09:07:45;;;;;;;;;;;;;;;36.83;30.91;100366.63;5031356;28;19924;-82
2022/07/27 09:10:11;;;;;;;;;;;;;;;36.93;29.46;100366.22;5032902;28;19921;-82
2022/07/27 09:12:37;;;;;;;;;;;;;;;37.12;29.28;100362.88;5035209;28;20039;-85
2022/07/27 09:15:05;;;;;;;;;;;;;;;37.70;29.02;100365.66;5035435;28;19917;-82
2022/07/27 09:17:30;;;;;;;;;;;;;;;38.16;28.39;100372.69;5031719;28;19921;-86
2022/07/27 09:19:56;;;;;;;;;;;;;;;38.96;26.62;100370.19;5030425;28;19972;-86
2022/07/27 09:22:45;;;;;;;;;;;;;;;39.11;26.60;100365.78;5039390;28;19913;-85
2022/07/27 09:25:13;;;;;;;;;;;;;;;40.17;25.05;100371.56;5025121;28;19971;-87
2022/07/27 09:27:38;;;;;;;;;;;;;;;40.06;24.60;100371.34;5020071;28;19956;-87
2022/07/27 09:30:05;;;;;;;;;;;;;;;40.55;23.89;100367.16;5027476;28;19921;-85
2022/07/27 09:32:31;;;;;;;;;;;;;;;40.15;24.06;100373.94;5031611;28;20378;-86
2022/07/27 09:34:56;;;;;;;;;;;;;;;40.74;23.34;100372.78;5031599;28;19932;-86
2022/07/27 09:37:22;;;;;;;;;;;;;;;40.41;24.07;100374.13;5026643;28;19913;-86
2022/07/27 09:39:47;;;;;;;;;;;;;;;40.76;23.95;100370.41;5030017;28;19924;-90
2022/07/27 09:42:14;;;;;;;;;;;;;;;41.46;23.18;100369.28;5039680;28;19913;-89
2022/07/27 09:44:39;;;;;;;;;;;;;;;41.91;22.75;100364.75;5030844;28;19929;-85
2022/07/27 09:47:21;;;;;;;;;;;;;;;42.31;22.36;100368.13;5017246;28;20341;-83
2022/07/27 09:49:47;;;;;;;;;;;;;;;43.00;21.65;100370.56;5030450;28;20246;-86
2022/07/27 09:52:20;;;;;;;;;;;;;;;42.77;22.13;100370.69;5035472;28;19926;-85
2022/07/27 09:54:46;;;;;;;;;;;;;;;42.76;22.64;100378.38;5031387;28;19925;-84
2022/07/27 09:57:11;;;;;;;;;;;;;;;43.47;21.70;100376.66;5036717;28;19921;-85
2022/07/27 09:59:36;;;;;;;;;;;;;;;44.11;20.78;100376.31;5051652;28;19987;-86
2022/07/27 10:02:02;;;;;;;;;;;;;;;43.98;20.80;100370.97;5036965;28;19990;-87
2022/07/27 10:04:27;;;;;;;;;;;;;;;44.09;20.68;100367.38;5037986;28;20064;-87
2022/07/27 10:06:52;;;;;;;;;;;;;;;42.51;21.22;100383.72;5037563;28;20012;-85
2022/07/27 10:09:18;;;;;;;;;;;;;;;42.64;21.60;100387.13;5036304;28;19983;-86
2022/07/27 10:11:44;;;;;;;;;;;;;;;41.93;23.40;100378.47;5035131;28;19976;-86
2022/07/27 10:14:10;;;;;;;;;;;;;;;42.50;22.69;100376.47;5037081;28;19917;-85
2022/07/27 10:16:35;;;;;;;;;;;;;;;42.38;22.65;100382.34;5027884;28;19920;-85
2022/07/27 10:19:14;;;;;;;;;;;;;;;41.29;23.86;100384.72;5035204;28;20004;-86
2022/07/27 10:21:42;;;;;;;;;;;;;;;40.07;25.58;100385.03;5036038;28;19971;-85
2022/07/27 10:24:08;;;;;;;;;;;;;;;40.29;26.07;100385.53;5018835;28;19917;-84
2022/07/27 10:26:34;;;;;;;;;;;;;;;40.30;26.04;100398.44;5036871;28;19916;-86
2022/07/27 10:29:12;;;;;;;;;;;;;;;39.38;27.28;100389.38;5037210;28;20311;-87
2022/07/27 10:31:37;;;;;;;;;;;;;;;40.02;26.34;100385.34;5034486;28;19963;-87
2022/07/27 10:34:04;;;;;;;;;;;;;;;39.34;27.02;100377.22;5032729;28;19917;-86
2022/07/27 10:36:29;;;;;;;;;;;;;;;40.44;25.64;100372.59;5031734;28;19920;-86
2022/07/27 10:38:57;;;;;;;;;;;;;;;40.93;24.87;100381.22;5034540;28;19933;-86
2022/07/27 10:41:24;;;;;;;;;;;;;;;40.43;25.44;100374.56;5036839;28;19921;-86
2022/07/27 10:43:50;;;;;;;;;;;;;;;40.13;26.00;100393.19;5035924;28;19917;-87
2022/07/27 10:46:19;;;;;;;;;;;;;;;40.02;26.61;100390.97;5034241;28;19913;-85
2022/07/27 10:48:45;;;;;;;;;;;;;;;39.92;26.42;100391.53;5034963;28;19946;-85
2022/07/27 10:51:10;;;;;;;;;;;;;;;39.66;26.72;100392.09;5034976;28;19917;-86
2022/07/27 10:53:37;;;;;;;;;;;;;;;38.56;28.22;100380.31;5036098;28;19972;-86
2022/07/27 10:56:03;;;;;;;;;;;;;;;38.67;28.10;100375.00;5035609;28;19913;-86
2022/07/27 10:58:28;;;;;;;;;;;;;;;39.10;27.90;100375.38;5018480;28;19920;-84
2022/07/27 11:00:53;;;;;;;;;;;;;;;38.44;28.68;100388.75;5032032;28;19917;-85
2022/07/27 11:03:20;;;;;;;;;;;;;;;37.12;30.90;100380.50;5034716;28;20278;-85
2022/07/27 11:05:57;;;;;;;;;;;;;;;37.00;30.87;100388.88;5035870;28;19909;-85
2022/07/27 11:08:26;;;;;;;;;;;;;;;35.89;33.16;100384.63;5023711;28;19924;-86
2022/07/27 11:10:51;;;;;;;;;;;;;;;35.80;33.62;100397.84;5032721;28;19923;-85
2022/07/27 11:13:17;;;;;;;;;;;;;;;34.50;35.86;100396.16;5033431;28;20003;-86
2022/07/27 11:15:50;;;;;;;;;;;;;;;33.84;37.08;100392.28;5035204;28;19947;-85
2022/07/27 11:18:15;;;;;;;;;;;;;;;32.38;41.03;100393.81;5027410;28;19914;-86
2022/07/27 11:20:42;;;;;;;;;;;;;;;32.42;41.10;100385.66;5024274;28;20431;-86
2022/07/27 11:23:20;;;;;;;;;;;;;;;32.09;42.37;100389.47;5040079;28;19941;-85
2022/07/27 11:26:20;;;;;;;;;;;;;;;32.30;42.33;100394.56;5034707;28;19979;-87
2022/07/27 11:28:46;;;;;;;;;;;;;;;31.62;44.00;100383.19;5040419;28;19963;-87
2022/07/27 11:31:12;;;;;;;;;;;;;;;31.24;45.03;100391.69;5031537;28;19917;-83
2022/07/27 11:33:58;;;;;;;;;;;;;;;31.36;45.19;100387.59;5037679;28;19944;-87
2022/07/27 11:36:37;;;;;;;;;;;;;;;31.53;44.99;100383.09;5055077;28;20407;-93
2022/07/27 11:39:05;;;;;;;;;;;;;;;31.49;45.04;100381.22;5044507;28;20361;-91
2022/07/27 11:41:33;;;;;;;;;;;;;;;31.68;44.82;100381.97;5046028;28;19920;-86
2022/07/27 11:44:00;;;;;;;;;;;;;;;31.32;46.03;100393.75;5025729;28;19921;-88
2022/07/27 11:46:27;;;;;;;;;;;;;;;31.28;46.08;100391.88;5045503;28;19913;-89
2022/07/27 11:48:52;;;;;;;;;;;;;;;30.97;47.39;100386.06;5052765;28;19925;-85
2022/07/27 11:51:17;;;;;;;;;;;;;;;31.41;46.97;100381.97;5053883;28;19945;-90
2022/07/27 11:53:43;;;;;;;;;;;;;;;31.57;46.50;100388.06;5048867;28;19968;-91
2022/07/27 11:56:09;;;;;;;;;;;;;;;31.46;47.57;100387.41;5037986;28;19989;-90
2022/07/27 11:58:54;;;;;;;;;;;;;;;31.82;46.92;100381.13;5044102;28;19987;-90
2022/07/27 12:01:26;;;;;;;;;;;;;;;31.93;46.00;100375.03;5040400;28;19917;-89
2022/07/27 12:04:14;;;;;;;;;;;;;;;31.87;46.00;100375.47;5049165;28;19924;-89
2022/07/27 12:06:40;;;;;;;;;;;;;;;32.24;45.55;100373.56;5046305;28;19924;-90
2022/07/27 12:09:06;;;;;;;;;;;;;;;32.22;45.66;100371.13;5049806;28;19909;-87
2022/07/27 12:11:52;;;;;;;;;;;;;;;32.36;45.31;100366.31;5047617;28;19920;-83
2022/07/27 12:14:26;;;;;;;;;;;;;;;31.55;47.33;100369.72;5041134;28;19913;-87
2022/07/27 12:16:51;;;;;;;;;;;;;;;31.83;46.58;100366.13;5040967;28;20301;-87
2022/07/27 12:19:23;;;;;;;;;;;;;;;31.78;46.84;100369.00;5040232;28;19916;-86
2022/07/27 12:21:56;;;;;;;;;;;;;;;31.07;48.61;100386.72;5037081;28;19924;-87
2022/07/27 12:24:31;;;;;;;;;;;;;;;30.98;48.99;100371.09;5040332;28;19975;-86
2022/07/27 12:27:01;;;;;;;;;;;;;;;30.47;50.42;100373.53;5030528;28;19913;-86
2022/07/27 12:29:28;;;;;;;;;;;;;;;30.36;50.65;100366.50;5031287;28;19928;-86
2022/07/27 12:31:53;;;;;;;;;;;;;;;30.27;51.10;100373.81;5035325;28;20322;-84
2022/07/27 12:34:22;;;;;;;;;;;;;;;29.78;51.53;100375.03;5032959;28;19929;-86
2022/07/27 12:36:47;;;;;;;;;;;;;;;30.07;51.03;100358.31;5027658;28;19968;-83
2022/07/27 12:39:26;;;;;;;;;;;;;;;29.93;51.63;100358.22;5034147;28;19925;-88
2022/07/27 12:42:05;;;;;;;;;;;;;;;29.94;51.47;100364.56;5040414;28;19917;-89